createdAt,value
2018-03-01T00:00:34.122Z,0.00
2018-03-01T00:01:34.128Z,0.00
2018-03-01T00:02:34.078Z,0.00
2018-03-01T00:03:34.039Z,0.00
2018-03-01T00:04:34.575Z,0.00
2018-03-01T00:05:34.032Z,0.00
2018-03-01T00:06:33.993Z,0.00
2018-03-01T00:07:33.950Z,0.00
2018-03-01T00:08:33.923Z,0.00
2018-03-01T00:09:33.920Z,0.00
2018-03-01T00:10:33.860Z,0.00
2018-03-01T00:11:33.844Z,0.00
2018-03-01T00:12:33.820Z,0.00
2018-03-01T00:13:33.854Z,0.00
2018-03-01T00:14:33.782Z,0.00
2018-03-01T00:15:33.764Z,0.00
2018-03-01T00:16:33.762Z,0.00
2018-03-01T00:17:33.701Z,0.00
2018-03-01T00:18:33.682Z,0.00
2018-03-01T00:19:33.658Z,0.00
2018-03-01T00:20:33.641Z,0.00
2018-03-01T00:21:33.608Z,0.00
2018-03-01T00:22:33.597Z,0.00
2018-03-01T00:23:33.560Z,0.00
2018-03-01T00:24:34.061Z,0.00
2018-03-01T00:25:33.510Z,0.00
2018-03-01T00:26:33.536Z,0.00
2018-03-01T00:27:33.465Z,0.00
2018-03-01T00:28:33.471Z,0.00
2018-03-01T00:29:33.434Z,0.00
2018-03-01T00:30:33.389Z,0.00
2018-03-01T00:31:33.357Z,0.00
2018-03-01T00:32:33.410Z,0.00
2018-03-01T00:33:33.340Z,0.00
2018-03-01T00:34:33.283Z,0.00
2018-03-01T00:35:33.267Z,0.00
2018-03-01T00:36:33.266Z,0.00
2018-03-01T00:37:33.218Z,0.00
2018-03-01T00:38:33.200Z,0.00
2018-03-01T00:39:33.176Z,0.00
2018-03-01T00:40:33.203Z,0.00
2018-03-01T00:41:33.129Z,0.00
2018-03-01T00:42:33.092Z,0.00
2018-03-01T00:43:33.074Z,0.00
2018-03-01T00:44:33.056Z,0.00
2018-03-01T00:45:33.055Z,0.00
2018-03-01T00:46:33.004Z,0.00
2018-03-01T00:47:32.986Z,0.00
2018-03-01T00:48:32.951Z,0.00
2018-03-01T00:49:32.927Z,0.00
2018-03-01T00:50:32.909Z,0.00
2018-03-01T00:51:32.896Z,0.00
2018-03-01T00:52:33.129Z,0.00
2018-03-01T00:53:32.838Z,0.00
2018-03-01T00:54:32.818Z,0.00
2018-03-01T00:55:32.779Z,0.00
2018-03-01T00:56:32.766Z,0.00
2018-03-01T00:57:32.768Z,0.00
2018-03-01T00:58:32.720Z,0.00
2018-03-01T00:59:32.692Z,0.00
2018-03-01T01:00:32.664Z,0.00
2018-03-01T01:01:32.777Z,0.00
2018-03-01T01:02:32.620Z,0.00
2018-03-01T01:03:32.627Z,0.00
2018-03-01T01:04:32.565Z,0.00
2018-03-01T01:05:32.563Z,0.00
2018-03-01T01:06:32.519Z,0.00
2018-03-01T01:07:32.502Z,0.00
2018-03-01T01:08:33.061Z,0.00
2018-03-01T01:09:32.444Z,0.00
2018-03-01T01:10:32.421Z,0.00
2018-03-01T01:11:32.407Z,0.00
2018-03-01T01:12:32.381Z,0.00
2018-03-01T01:13:32.359Z,0.00
2018-03-01T01:14:32.375Z,0.00
2018-03-01T01:15:32.315Z,0.00
2018-03-01T01:16:32.271Z,0.00
2018-03-01T01:17:32.258Z,0.00
2018-03-01T01:18:32.238Z,0.00
2018-03-01T01:19:32.241Z,0.00
2018-03-01T01:20:32.186Z,0.00
2018-03-01T01:21:32.159Z,0.00
2018-03-01T01:22:32.171Z,0.00
2018-03-01T01:23:32.107Z,0.00
2018-03-01T01:24:34.408Z,0.00
2018-03-01T01:25:32.091Z,0.00
2018-03-01T01:26:32.052Z,0.00
2018-03-01T01:27:32.027Z,0.00
2018-03-01T01:28:32.008Z,0.00
2018-03-01T01:29:31.984Z,0.00
2018-03-01T01:30:31.957Z,0.00
2018-03-01T01:31:31.928Z,0.00
2018-03-01T01:32:31.911Z,0.00
2018-03-01T01:33:31.873Z,0.00
2018-03-01T01:34:31.857Z,0.00
2018-03-01T01:35:31.859Z,0.00
2018-03-01T01:36:31.814Z,0.00
2018-03-01T01:37:31.774Z,0.00
2018-03-01T01:38:31.754Z,0.00
2018-03-01T01:39:31.730Z,0.00
2018-03-01T01:40:32.565Z,0.00
2018-03-01T01:41:31.679Z,0.00
2018-03-01T01:42:31.654Z,0.00
2018-03-01T01:43:31.637Z,0.00
2018-03-01T01:44:31.608Z,0.00
2018-03-01T01:45:31.595Z,0.00
2018-03-01T01:46:31.622Z,0.00
2018-03-01T01:47:31.544Z,0.00
2018-03-01T01:48:31.514Z,0.00
2018-03-01T01:49:31.498Z,0.00
2018-03-01T01:50:32.057Z,0.00
2018-03-01T01:51:31.484Z,0.00
2018-03-01T01:52:31.427Z,0.00
2018-03-01T01:53:31.392Z,0.00
2018-03-01T01:54:31.375Z,0.00
2018-03-01T01:55:31.351Z,0.00
2018-03-01T01:56:31.361Z,0.00
2018-03-01T01:57:32.058Z,0.00
2018-03-01T01:58:31.281Z,0.00
2018-03-01T01:59:31.342Z,0.00
2018-03-01T02:00:31.239Z,0.00
2018-03-01T02:01:31.256Z,0.00
2018-03-01T02:02:31.193Z,0.00
2018-03-01T02:03:31.166Z,0.00
2018-03-01T02:04:32.061Z,0.00
2018-03-01T02:05:31.115Z,0.00
2018-03-01T02:06:31.095Z,0.00
2018-03-01T02:07:31.127Z,0.00
2018-03-01T02:08:31.045Z,0.00
2018-03-01T02:09:31.007Z,0.00
2018-03-01T02:10:31.009Z,0.00
2018-03-01T02:11:30.971Z,0.00
2018-03-01T02:12:30.955Z,0.00
2018-03-01T02:13:30.969Z,0.00
2018-03-01T02:14:30.985Z,0.00
2018-03-01T02:15:30.874Z,0.00
2018-03-01T02:16:30.856Z,0.00
2018-03-01T02:17:30.858Z,0.00
2018-03-01T02:18:30.803Z,0.00
2018-03-01T02:19:30.823Z,0.00
2018-03-01T02:20:30.766Z,0.00
2018-03-01T02:21:30.739Z,0.00
2018-03-01T02:22:30.724Z,0.00
2018-03-01T02:23:30.748Z,0.00
2018-03-01T02:24:30.712Z,0.00
2018-03-01T02:25:30.651Z,0.00
2018-03-01T02:26:30.671Z,0.00
2018-03-01T02:27:30.587Z,0.00
2018-03-01T02:28:30.563Z,0.00
2018-03-01T02:29:30.548Z,0.00
2018-03-01T02:30:30.509Z,0.00
2018-03-01T02:31:30.496Z,0.00
2018-03-01T02:32:30.460Z,0.00
2018-03-01T02:33:30.448Z,0.00
2018-03-01T02:34:30.473Z,0.00
2018-03-01T02:35:30.407Z,0.00
2018-03-01T02:36:30.391Z,0.00
2018-03-01T02:37:31.054Z,0.00
2018-03-01T02:38:30.343Z,0.00
2018-03-01T02:39:30.302Z,0.00
2018-03-01T02:40:30.337Z,0.00
2018-03-01T02:41:30.257Z,0.00
2018-03-01T02:42:30.237Z,0.00
2018-03-01T02:43:30.206Z,0.00
2018-03-01T02:44:30.196Z,0.00
2018-03-01T02:45:30.169Z,0.00
2018-03-01T02:46:30.169Z,0.00
2018-03-01T02:47:30.132Z,0.00
2018-03-01T02:48:30.093Z,0.00
2018-03-01T02:49:30.102Z,0.00
2018-03-01T02:50:30.072Z,0.00
2018-03-01T02:51:30.028Z,0.00
2018-03-01T02:52:30.067Z,0.00
2018-03-01T02:53:29.981Z,0.00
2018-03-01T02:54:29.942Z,0.00
2018-03-01T02:55:29.920Z,0.00
2018-03-01T02:56:29.917Z,0.00
2018-03-01T02:57:29.903Z,0.00
2018-03-01T02:58:29.858Z,0.00
2018-03-01T02:59:29.824Z,0.00
2018-03-01T03:00:29.801Z,0.00
2018-03-01T03:01:29.776Z,0.00
2018-03-01T03:02:29.806Z,0.00
2018-03-01T03:03:29.732Z,0.00
2018-03-01T03:04:29.700Z,0.00
2018-03-01T03:05:29.677Z,0.00
2018-03-01T03:06:29.649Z,0.00
2018-03-01T03:07:29.638Z,0.00
2018-03-01T03:08:29.653Z,0.00
2018-03-01T03:09:29.591Z,0.00
2018-03-01T03:10:29.561Z,0.00
2018-03-01T03:11:29.551Z,0.00
2018-03-01T03:12:29.509Z,0.00
2018-03-01T03:13:29.493Z,0.00
2018-03-01T03:14:29.500Z,0.00
2018-03-01T03:15:29.468Z,0.00
2018-03-01T03:16:29.423Z,0.00
2018-03-01T03:17:29.389Z,0.00
2018-03-01T03:18:29.415Z,0.00
2018-03-01T03:19:29.347Z,0.00
2018-03-01T03:20:29.322Z,0.00
2018-03-01T03:21:29.334Z,0.00
2018-03-01T03:22:29.277Z,0.00
2018-03-01T03:23:29.251Z,0.00
2018-03-01T03:24:29.244Z,0.00
2018-03-01T03:25:29.202Z,0.00
2018-03-01T03:26:29.182Z,0.00
2018-03-01T03:27:29.160Z,0.00
2018-03-01T03:28:29.135Z,0.00
2018-03-01T03:29:29.107Z,0.00
2018-03-01T03:30:29.083Z,0.00
2018-03-01T03:31:29.082Z,0.00
2018-03-01T03:32:29.030Z,0.00
2018-03-01T03:33:29.015Z,0.00
2018-03-01T03:34:28.984Z,0.00
2018-03-01T03:35:28.964Z,0.00
2018-03-01T03:36:28.967Z,0.00
2018-03-01T03:37:28.953Z,0.00
2018-03-01T03:38:28.884Z,0.00
2018-03-01T03:39:28.863Z,0.00
2018-03-01T03:40:28.874Z,0.00
2018-03-01T03:41:28.885Z,0.00
2018-03-01T03:42:28.852Z,0.00
2018-03-01T03:43:28.770Z,0.00
2018-03-01T03:44:28.776Z,0.00
2018-03-01T03:45:28.716Z,0.00
2018-03-01T03:46:28.701Z,0.00
2018-03-01T03:47:28.677Z,0.00
2018-03-01T03:48:28.653Z,0.00
2018-03-01T03:49:28.631Z,0.00
2018-03-01T03:50:28.600Z,0.00
2018-03-01T03:51:28.580Z,0.00
2018-03-01T03:52:28.558Z,0.00
2018-03-01T03:53:28.566Z,0.00
2018-03-01T03:54:28.511Z,0.00
2018-03-01T03:55:28.482Z,0.00
2018-03-01T03:56:28.458Z,0.00
2018-03-01T03:57:28.438Z,0.00
2018-03-01T03:58:28.421Z,0.00
2018-03-01T03:59:28.385Z,0.00
2018-03-01T04:00:28.415Z,0.00
2018-03-01T04:01:28.331Z,0.00
2018-03-01T04:02:28.306Z,0.00
2018-03-01T04:03:28.290Z,0.00
2018-03-01T04:04:28.259Z,0.00
2018-03-01T04:05:28.244Z,0.00
2018-03-01T04:06:28.234Z,0.00
2018-03-01T04:07:28.210Z,0.00
2018-03-01T04:08:28.172Z,0.00
2018-03-01T04:09:28.146Z,0.00
2018-03-01T04:10:28.120Z,0.00
2018-03-01T04:11:28.139Z,0.00
2018-03-01T04:12:28.076Z,0.00
2018-03-01T04:13:28.048Z,0.00
2018-03-01T04:14:28.032Z,0.00
2018-03-01T04:15:28.010Z,0.00
2018-03-01T04:16:27.983Z,0.00
2018-03-01T04:17:27.962Z,0.00
2018-03-01T04:18:27.983Z,0.00
2018-03-01T04:19:27.914Z,0.00
2018-03-01T04:20:27.885Z,0.00
2018-03-01T04:21:27.857Z,0.00
2018-03-01T04:22:27.827Z,0.00
2018-03-01T04:23:27.848Z,0.00
2018-03-01T04:24:27.841Z,0.00
2018-03-01T04:25:27.759Z,0.00
2018-03-01T04:26:27.737Z,0.00
2018-03-01T04:27:27.711Z,0.00
2018-03-01T04:28:27.702Z,0.00
2018-03-01T04:29:27.658Z,0.00
2018-03-01T04:30:27.656Z,0.00
2018-03-01T04:31:27.625Z,0.00
2018-03-01T04:32:27.608Z,0.00
2018-03-01T04:33:27.610Z,0.00
2018-03-01T04:34:27.548Z,0.00
2018-03-01T04:35:27.582Z,0.00
2018-03-01T04:36:27.500Z,0.00
2018-03-01T04:37:27.472Z,0.00
2018-03-01T04:38:27.454Z,0.00
2018-03-01T04:39:27.432Z,0.00
2018-03-01T04:40:27.416Z,0.00
2018-03-01T04:41:27.445Z,0.00
2018-03-01T04:42:27.353Z,0.00
2018-03-01T04:43:27.328Z,0.00
2018-03-01T04:44:27.307Z,0.00
2018-03-01T04:45:27.286Z,0.00
2018-03-01T04:46:27.256Z,0.00
2018-03-01T04:47:27.246Z,0.00
2018-03-01T04:48:27.209Z,0.00
2018-03-01T04:49:27.181Z,0.00
2018-03-01T04:50:27.175Z,0.00
2018-03-01T04:51:27.134Z,0.00
2018-03-01T04:52:27.148Z,0.00
2018-03-01T04:53:27.091Z,0.00
2018-03-01T04:54:27.076Z,0.00
2018-03-01T04:55:27.057Z,0.00
2018-03-01T04:56:27.014Z,0.00
2018-03-01T04:57:26.994Z,0.00
2018-03-01T04:58:27.017Z,0.00
2018-03-01T04:59:26.949Z,0.00
2018-03-01T05:00:26.920Z,0.00
2018-03-01T05:01:26.901Z,0.00
2018-03-01T05:02:26.867Z,0.00
2018-03-01T05:03:26.851Z,0.00
2018-03-01T05:04:27.003Z,0.00
2018-03-01T05:05:26.808Z,0.00
2018-03-01T05:06:26.776Z,0.00
2018-03-01T05:07:26.750Z,0.00
2018-03-01T05:08:26.735Z,0.00
2018-03-01T05:09:26.734Z,0.00
2018-03-01T05:10:26.685Z,0.00
2018-03-01T05:11:26.696Z,0.00
2018-03-01T05:12:26.636Z,0.00
2018-03-01T05:13:26.610Z,0.00
2018-03-01T05:14:26.595Z,0.00
2018-03-01T05:15:26.560Z,0.00
2018-03-01T05:16:26.600Z,0.00
2018-03-01T05:17:26.506Z,0.00
2018-03-01T05:18:26.504Z,0.00
2018-03-01T05:19:26.471Z,0.00
2018-03-01T05:20:26.441Z,0.00
2018-03-01T05:21:26.428Z,0.00
2018-03-01T05:22:26.406Z,0.00
2018-03-01T05:23:26.366Z,0.00
2018-03-01T05:24:26.343Z,0.00
2018-03-01T05:25:26.317Z,0.00
2018-03-01T05:26:26.292Z,0.00
2018-03-01T05:27:26.301Z,0.00
2018-03-01T05:28:26.288Z,0.00
2018-03-01T05:29:26.222Z,0.00
2018-03-01T05:30:26.208Z,0.00
2018-03-01T05:31:26.187Z,0.00
2018-03-01T05:32:26.154Z,0.00
2018-03-01T05:33:26.193Z,0.00
2018-03-01T05:34:26.109Z,0.00
2018-03-01T05:35:26.085Z,0.00
2018-03-01T05:36:26.067Z,0.00
2018-03-01T05:37:26.043Z,0.00
2018-03-01T05:38:26.006Z,0.00
2018-03-01T05:39:25.982Z,0.00
2018-03-01T05:40:26.024Z,0.00
2018-03-01T05:41:25.930Z,0.00
2018-03-01T05:42:25.919Z,0.00
2018-03-01T05:43:25.896Z,4.00
2018-03-01T05:44:25.867Z,0.00
2018-03-01T05:45:25.845Z,0.00
2018-03-01T05:46:25.841Z,4.00
2018-03-01T05:47:25.793Z,4.00
2018-03-01T05:48:25.763Z,0.00
2018-03-01T05:49:25.756Z,4.00
2018-03-01T05:50:25.718Z,4.00
2018-03-01T05:51:25.697Z,4.00
2018-03-01T05:52:25.669Z,8.00
2018-03-01T05:53:25.644Z,12.00
2018-03-01T05:54:25.627Z,12.00
2018-03-01T05:55:25.591Z,12.00
2018-03-01T05:56:25.570Z,16.00
2018-03-01T05:57:25.561Z,20.00
2018-03-01T05:58:25.529Z,20.00
2018-03-01T05:59:25.512Z,24.00
2018-03-01T06:00:25.508Z,28.00
2018-03-01T06:01:25.452Z,32.00
2018-03-01T06:02:25.430Z,36.00
2018-03-01T06:03:25.405Z,40.00
2018-03-01T06:04:25.379Z,52.00
2018-03-01T06:05:25.396Z,56.00
2018-03-01T06:06:25.335Z,68.00
2018-03-01T06:07:25.371Z,76.00
2018-03-01T06:08:25.295Z,84.00
2018-03-01T06:09:25.265Z,100.00
2018-03-01T06:10:25.232Z,112.00
2018-03-01T06:11:25.204Z,124.00
2018-03-01T06:12:25.199Z,136.00
2018-03-01T06:13:25.192Z,148.00
2018-03-01T06:14:25.147Z,160.00
2018-03-01T06:15:25.179Z,172.00
2018-03-01T06:16:25.097Z,188.00
2018-03-01T06:17:25.064Z,200.00
2018-03-01T06:18:25.047Z,220.00
2018-03-01T06:19:25.027Z,236.00
2018-03-01T06:20:25.000Z,248.00
2018-03-01T06:21:24.982Z,268.00
2018-03-01T06:22:24.942Z,284.00
2018-03-01T06:23:24.926Z,300.00
2018-03-01T06:24:24.893Z,320.00
2018-03-01T06:25:24.871Z,336.00
2018-03-01T06:26:24.880Z,356.00
2018-03-01T06:27:24.830Z,380.00
2018-03-01T06:28:24.808Z,400.00
2018-03-01T06:29:24.841Z,416.00
2018-03-01T06:30:24.756Z,432.00
2018-03-01T06:31:24.729Z,452.00
2018-03-01T06:32:24.699Z,472.00
2018-03-01T06:33:24.678Z,492.00
2018-03-01T06:34:24.660Z,524.00
2018-03-01T06:35:24.696Z,556.00
2018-03-01T06:36:24.623Z,592.00
2018-03-01T06:37:24.581Z,632.00
2018-03-01T06:38:24.556Z,672.00
2018-03-01T06:39:24.541Z,708.00
2018-03-01T06:40:24.517Z,748.00
2018-03-01T06:41:24.502Z,792.00
2018-03-01T06:42:24.470Z,836.00
2018-03-01T06:43:24.434Z,872.00
2018-03-01T06:44:24.422Z,912.00
2018-03-01T06:45:24.393Z,948.00
2018-03-01T06:46:24.405Z,988.00
2018-03-01T06:47:24.347Z,1024.00
2018-03-01T06:48:24.323Z,1060.00
2018-03-01T06:49:24.297Z,1088.00
2018-03-01T06:50:24.284Z,1116.00
2018-03-01T06:51:24.305Z,1140.00
2018-03-01T06:52:24.216Z,1164.00
2018-03-01T06:53:24.206Z,1188.00
2018-03-01T06:54:24.177Z,1208.00
2018-03-01T06:55:24.153Z,1232.00
2018-03-01T06:56:24.131Z,1268.00
2018-03-01T06:57:24.134Z,1296.00
2018-03-01T06:58:24.092Z,1328.00
2018-03-01T06:59:24.055Z,1364.00
2018-03-01T07:00:24.042Z,1400.00
2018-03-01T07:01:24.021Z,1436.00
2018-03-01T07:02:24.040Z,1468.00
2018-03-01T07:03:23.959Z,1508.00
2018-03-01T07:04:23.943Z,1540.00
2018-03-01T07:05:23.919Z,1592.00
2018-03-01T07:06:23.890Z,1620.00
2018-03-01T07:07:23.871Z,1632.00
2018-03-01T07:08:23.849Z,1624.00
2018-03-01T07:09:23.821Z,1648.00
2018-03-01T07:10:23.787Z,1708.00
2018-03-01T07:11:23.768Z,1780.00
2018-03-01T07:12:23.753Z,1844.00
2018-03-01T07:13:23.756Z,1888.00
2018-03-01T07:14:23.701Z,1896.00
2018-03-01T07:15:23.677Z,1932.00
2018-03-01T07:16:23.655Z,1956.00
2018-03-01T07:17:23.628Z,1968.00
2018-03-01T07:18:23.635Z,2008.00
2018-03-01T07:19:23.580Z,2060.00
2018-03-01T07:20:23.560Z,2112.00
2018-03-01T07:21:23.527Z,2148.00
2018-03-01T07:22:23.508Z,2164.00
2018-03-01T07:23:23.515Z,2180.00
2018-03-01T07:24:23.469Z,2220.00
2018-03-01T07:25:23.431Z,2240.00
2018-03-01T07:26:23.415Z,2232.00
2018-03-01T07:27:23.385Z,2248.00
2018-03-01T07:28:23.418Z,2292.00
2018-03-01T07:29:23.339Z,2328.00
2018-03-01T07:30:23.321Z,2360.00
2018-03-01T07:31:23.291Z,2424.00
2018-03-01T07:32:23.273Z,2440.00
2018-03-01T07:33:23.258Z,2424.00
2018-03-01T07:34:23.301Z,2416.00
2018-03-01T07:35:23.198Z,2376.00
2018-03-01T07:36:23.184Z,2392.00
2018-03-01T07:37:23.159Z,2364.00
2018-03-01T07:38:23.132Z,2284.00
2018-03-01T07:39:23.109Z,2196.00
2018-03-01T07:40:23.095Z,2036.00
2018-03-01T07:41:23.057Z,1996.00
2018-03-01T07:42:23.040Z,1972.00
2018-03-01T07:43:23.048Z,1952.00
2018-03-01T07:44:22.987Z,1972.00
2018-03-01T07:45:22.969Z,2032.00
2018-03-01T07:46:22.945Z,2136.00
2018-03-01T07:47:22.929Z,2112.00
2018-03-01T07:48:22.896Z,2080.00
2018-03-01T07:49:22.904Z,2040.00
2018-03-01T07:50:22.838Z,2096.00
2018-03-01T07:51:22.867Z,2072.00
2018-03-01T07:52:22.817Z,2096.00
2018-03-01T07:53:22.791Z,2140.00
2018-03-01T07:54:22.761Z,2228.00
2018-03-01T07:55:22.729Z,2376.00
2018-03-01T07:56:22.758Z,2564.00
2018-03-01T07:57:22.688Z,2744.00
2018-03-01T07:58:22.660Z,2860.00
2018-03-01T07:59:22.642Z,2840.00
2018-03-01T08:00:22.618Z,2808.00
2018-03-01T08:01:23.370Z,2776.00
2018-03-01T08:02:23.260Z,2784.00
2018-03-01T08:03:23.320Z,2812.00
2018-03-01T08:04:23.002Z,2812.00
2018-03-01T08:05:23.316Z,2804.00
2018-03-01T08:06:22.472Z,2804.00
2018-03-01T08:07:22.448Z,2800.00
2018-03-01T08:08:22.421Z,2812.00
2018-03-01T08:09:22.431Z,2788.00
2018-03-01T08:10:22.434Z,2760.00
2018-03-01T08:11:22.349Z,2776.00
2018-03-01T08:12:22.337Z,2788.00
2018-03-01T08:13:22.310Z,2816.00
2018-03-01T08:14:22.300Z,2872.00
2018-03-01T08:15:22.274Z,2916.00
2018-03-01T08:16:22.298Z,3000.00
2018-03-01T08:17:22.222Z,3036.00
2018-03-01T08:18:22.198Z,3052.00
2018-03-01T08:19:22.826Z,3068.00
2018-03-01T08:20:22.949Z,3096.00
2018-03-01T08:21:22.151Z,3112.00
2018-03-01T08:22:22.182Z,3136.00
2018-03-01T08:23:22.571Z,3184.00
2018-03-01T08:24:22.064Z,3216.00
2018-03-01T08:25:22.050Z,3232.00
2018-03-01T08:26:22.010Z,3176.00
2018-03-01T08:27:22.009Z,3248.00
2018-03-01T08:28:21.959Z,3340.00
2018-03-01T08:29:21.940Z,3360.00
2018-03-01T08:30:21.911Z,3320.00
2018-03-01T08:31:21.926Z,3320.00
2018-03-01T08:32:21.887Z,3244.00
2018-03-01T08:33:21.886Z,3484.00
2018-03-01T08:34:21.828Z,3616.00
2018-03-01T08:35:21.833Z,3668.00
2018-03-01T08:36:21.775Z,3720.00
2018-03-01T08:37:21.753Z,3752.00
2018-03-01T08:38:21.763Z,3776.00
2018-03-01T08:39:21.716Z,3808.00
2018-03-01T08:40:21.687Z,3872.00
2018-03-01T08:41:21.683Z,3924.00
2018-03-01T08:42:21.632Z,3924.00
2018-03-01T08:43:21.657Z,3856.00
2018-03-01T08:44:21.608Z,3816.00
2018-03-01T08:45:21.567Z,3692.00
2018-03-01T08:46:21.595Z,3724.00
2018-03-01T08:47:21.531Z,3544.00
2018-03-01T08:48:21.501Z,3460.00
2018-03-01T08:49:21.473Z,3716.00
2018-03-01T08:50:21.630Z,3852.00
2018-03-01T08:51:21.434Z,3928.00
2018-03-01T08:52:21.416Z,3988.00
2018-03-01T08:53:21.395Z,4024.00
2018-03-01T08:54:21.365Z,4080.00
2018-03-01T08:55:21.427Z,4136.00
2018-03-01T08:56:21.320Z,4164.00
2018-03-01T08:57:21.302Z,4200.00
2018-03-01T08:58:21.285Z,4240.00
2018-03-01T08:59:21.250Z,4196.00
2018-03-01T09:00:21.233Z,4172.00
2018-03-01T09:01:21.257Z,4144.00
2018-03-01T09:02:21.195Z,4088.00
2018-03-01T09:03:21.167Z,4088.00
2018-03-01T09:04:21.148Z,4060.00
2018-03-01T09:05:21.185Z,3972.00
2018-03-01T09:06:21.094Z,4040.00
2018-03-01T09:07:21.068Z,4104.00
2018-03-01T09:08:21.062Z,3996.00
2018-03-01T09:09:21.032Z,3928.00
2018-03-01T09:10:21.010Z,3740.00
2018-03-01T09:11:21.033Z,3816.00
2018-03-01T09:12:20.966Z,3804.00
2018-03-01T09:13:20.945Z,3912.00
2018-03-01T09:14:20.922Z,3948.00
2018-03-01T09:15:20.893Z,3980.00
2018-03-01T09:16:20.884Z,4020.00
2018-03-01T09:17:20.857Z,4072.00
2018-03-01T09:18:20.829Z,4056.00
2018-03-01T09:19:21.544Z,4204.00
2018-03-01T09:20:20.799Z,4300.00
2018-03-01T09:21:20.765Z,4192.00
2018-03-01T09:22:20.770Z,4164.00
2018-03-01T09:23:20.717Z,4176.00
2018-03-01T09:24:20.708Z,4148.00
2018-03-01T09:25:20.691Z,4184.00
2018-03-01T09:26:20.673Z,4216.00
2018-03-01T09:27:20.634Z,4160.00
2018-03-01T09:28:20.625Z,4224.00
2018-03-01T09:29:20.602Z,4276.00
2018-03-01T09:30:20.570Z,4124.00
2018-03-01T09:31:20.593Z,4060.00
2018-03-01T09:32:20.538Z,4016.00
2018-03-01T09:33:20.512Z,4120.00
2018-03-01T09:34:20.494Z,4104.00
2018-03-01T09:35:20.478Z,4168.00
2018-03-01T09:36:20.448Z,4252.00
2018-03-01T09:37:20.435Z,4180.00
2018-03-01T09:38:20.408Z,4184.00
2018-03-01T09:39:20.386Z,4224.00
2018-03-01T09:40:20.364Z,4316.00
2018-03-01T09:41:20.405Z,4252.00
2018-03-01T09:42:20.721Z,4352.00
2018-03-01T09:43:20.302Z,4444.00
2018-03-01T09:44:20.282Z,4352.00
2018-03-01T09:45:20.259Z,4444.00
2018-03-01T09:46:20.243Z,4364.00
2018-03-01T09:47:20.266Z,4452.00
2018-03-01T09:48:20.203Z,4424.00
2018-03-01T09:49:20.191Z,4384.00
2018-03-01T09:50:20.160Z,4480.00
2018-03-01T09:51:20.143Z,4384.00
2018-03-01T09:52:20.122Z,4340.00
2018-03-01T09:53:20.089Z,4396.00
2018-03-01T09:54:20.070Z,4444.00
2018-03-01T09:55:20.052Z,4440.00
2018-03-01T09:56:20.035Z,4408.00
2018-03-01T09:57:20.003Z,4592.00
2018-03-01T09:58:20.043Z,4580.00
2018-03-01T09:59:19.973Z,4516.00
2018-03-01T10:00:19.944Z,4456.00
2018-03-01T10:01:19.926Z,4496.00
2018-03-01T10:02:19.900Z,4508.00
2018-03-01T10:03:19.896Z,4556.00
2018-03-01T10:04:19.894Z,4552.00
2018-03-01T10:05:19.839Z,4656.00
2018-03-01T10:06:19.830Z,4704.00
2018-03-01T10:07:19.799Z,4896.00
2018-03-01T10:08:19.779Z,5076.00
2018-03-01T10:09:19.772Z,5100.00
2018-03-01T10:10:19.782Z,5188.00
2018-03-01T10:11:19.724Z,5472.00
2018-03-01T10:12:19.700Z,5436.00
2018-03-01T10:13:19.673Z,5048.00
2018-03-01T10:14:19.653Z,4744.00
2018-03-01T10:15:19.631Z,4788.00
2018-03-01T10:16:19.668Z,4736.00
2018-03-01T10:17:19.593Z,5008.00
2018-03-01T10:18:19.565Z,4944.00
2018-03-01T10:19:19.542Z,4848.00
2018-03-01T10:20:19.536Z,4852.00
2018-03-01T10:21:19.512Z,4816.00
2018-03-01T10:22:19.520Z,5064.00
2018-03-01T10:23:19.465Z,5224.00
2018-03-01T10:24:19.444Z,5516.00
2018-03-01T10:25:19.436Z,5372.00
2018-03-01T10:26:19.396Z,5508.00
2018-03-01T10:27:19.387Z,5572.00
2018-03-01T10:28:19.384Z,5556.00
2018-03-01T10:29:19.339Z,5420.00
2018-03-01T10:30:19.329Z,6200.00
2018-03-01T10:31:19.332Z,6736.00
2018-03-01T10:32:19.279Z,7128.00
2018-03-01T10:33:19.257Z,8388.00
2018-03-01T10:34:19.245Z,7044.00
2018-03-01T10:35:19.215Z,5864.00
2018-03-01T10:36:19.191Z,8680.00
2018-03-01T10:37:19.187Z,11428.00
2018-03-01T10:38:19.169Z,13340.00
2018-03-01T10:39:19.141Z,12184.00
2018-03-01T10:40:19.197Z,9720.00
2018-03-01T10:41:19.102Z,13272.00
2018-03-01T10:42:19.124Z,16256.00
2018-03-01T10:43:19.209Z,14028.00
2018-03-01T10:44:19.047Z,12224.00
2018-03-01T10:45:19.013Z,12812.00
2018-03-01T10:46:19.009Z,14656.00
2018-03-01T10:47:20.208Z,11248.00
2018-03-01T10:48:19.498Z,8588.00
2018-03-01T10:49:19.765Z,20448.00
2018-03-01T10:50:19.533Z,25088.00
2018-03-01T10:51:18.905Z,18688.00
2018-03-01T10:52:18.902Z,14624.00
2018-03-01T10:53:18.882Z,7384.00
2018-03-01T10:54:18.854Z,5288.00
2018-03-01T10:55:18.836Z,5716.00
2018-03-01T10:56:18.821Z,6128.00
2018-03-01T10:57:18.796Z,5180.00
2018-03-01T10:58:18.836Z,5952.00
2018-03-01T10:59:18.752Z,11404.00
2018-03-01T11:00:18.747Z,12520.00
2018-03-01T11:01:18.723Z,6880.00
2018-03-01T11:02:18.700Z,9504.00
2018-03-01T11:03:18.685Z,17088.00
2018-03-01T11:04:18.721Z,11072.00
2018-03-01T11:05:18.644Z,7804.00
2018-03-01T11:06:18.635Z,8676.00
2018-03-01T11:07:18.612Z,10592.00
2018-03-01T11:08:18.589Z,14784.00
2018-03-01T11:09:18.576Z,16288.00
2018-03-01T11:10:18.554Z,13164.00
2018-03-01T11:11:18.564Z,17408.00
2018-03-01T11:12:18.511Z,16480.00
2018-03-01T11:13:18.498Z,14084.00
2018-03-01T11:14:18.484Z,15712.00
2018-03-01T11:15:18.524Z,14912.00
2018-03-01T11:16:18.432Z,8292.00
2018-03-01T11:17:18.420Z,5756.00
2018-03-01T11:18:18.405Z,6248.00
2018-03-01T11:19:18.369Z,7948.00
2018-03-01T11:20:18.360Z,10292.00
2018-03-01T11:21:18.376Z,16512.00
2018-03-01T11:22:18.315Z,23904.00
2018-03-01T11:23:18.333Z,25024.00
2018-03-01T11:24:18.292Z,29664.00
2018-03-01T11:25:18.282Z,23296.00
2018-03-01T11:26:18.308Z,12868.00
2018-03-01T11:27:18.238Z,12820.00
2018-03-01T11:28:18.206Z,18528.00
2018-03-01T11:29:18.194Z,10452.00
2018-03-01T11:30:18.181Z,8396.00
2018-03-01T11:31:18.166Z,9832.00
2018-03-01T11:32:18.145Z,15776.00
2018-03-01T11:33:18.125Z,24224.00
2018-03-01T11:34:18.149Z,21344.00
2018-03-01T11:35:18.106Z,25792.00
2018-03-01T11:36:18.065Z,22464.00
2018-03-01T11:37:18.071Z,22560.00
2018-03-01T11:38:18.037Z,15840.00
2018-03-01T11:39:18.017Z,25088.00
2018-03-01T11:40:17.999Z,21312.00
2018-03-01T11:41:17.987Z,23264.00
2018-03-01T11:42:17.969Z,26912.00
2018-03-01T11:43:17.960Z,16640.00
2018-03-01T11:44:17.944Z,10184.00
2018-03-01T11:45:17.923Z,8464.00
2018-03-01T11:46:17.924Z,11168.00
2018-03-01T11:47:17.885Z,18464.00
2018-03-01T11:48:17.868Z,22048.00
2018-03-01T11:49:17.854Z,16416.00
2018-03-01T11:50:17.845Z,13816.00
2018-03-01T11:51:17.866Z,16064.00
2018-03-01T11:52:17.800Z,22752.00
2018-03-01T11:53:17.786Z,21408.00
2018-03-01T11:54:17.764Z,22912.00
2018-03-01T11:55:17.738Z,26912.00
2018-03-01T11:56:17.734Z,19776.00
2018-03-01T11:57:17.733Z,22816.00
2018-03-01T11:58:17.696Z,15616.00
2018-03-01T11:59:17.683Z,17728.00
2018-03-01T12:00:17.655Z,23072.00
2018-03-01T12:01:17.646Z,23936.00
2018-03-01T12:02:17.636Z,16992.00
2018-03-01T12:03:17.606Z,16320.00
2018-03-01T12:04:17.591Z,23808.00
2018-03-01T12:05:17.577Z,26368.00
2018-03-01T12:06:17.567Z,23104.00
2018-03-01T12:07:17.586Z,24192.00
2018-03-01T12:08:17.535Z,22400.00
2018-03-01T12:09:17.512Z,22048.00
2018-03-01T12:10:17.492Z,24992.00
2018-03-01T12:11:17.485Z,27680.00
2018-03-01T12:12:17.454Z,26432.00
2018-03-01T12:13:17.495Z,26080.00
2018-03-01T12:14:17.430Z,23936.00
2018-03-01T12:15:17.406Z,18720.00
2018-03-01T12:16:17.403Z,20480.00
2018-03-01T12:17:17.391Z,20672.00
2018-03-01T12:18:17.365Z,21184.00
2018-03-01T12:19:17.385Z,20416.00
2018-03-01T12:20:17.335Z,15648.00
2018-03-01T12:21:17.322Z,15300.00
2018-03-01T12:22:17.312Z,12248.00
2018-03-01T12:23:17.283Z,12252.00
2018-03-01T12:24:17.330Z,14052.00
2018-03-01T12:25:17.260Z,14816.00
2018-03-01T12:26:17.249Z,14976.00
2018-03-01T12:27:17.228Z,19616.00
2018-03-01T12:28:17.211Z,21504.00
2018-03-01T12:29:17.194Z,16800.00
2018-03-01T12:30:17.233Z,15232.00
2018-03-01T12:31:17.165Z,14024.00
2018-03-01T12:32:17.156Z,17888.00
2018-03-01T12:33:17.133Z,20512.00
2018-03-01T12:34:17.121Z,20256.00
2018-03-01T12:35:17.105Z,19296.00
2018-03-01T12:36:17.094Z,20800.00